createdAt,value
2023-03-12T00:00:49.522Z,996.2
2023-03-12T00:01:50.378Z,996.2
2023-03-12T00:02:51.694Z,996.2
2023-03-12T00:03:53.193Z,996.2
2023-03-12T00:04:54.792Z,996.2
2023-03-12T00:05:56.211Z,996.2
2023-03-12T00:06:57.625Z,996.2
2023-03-12T00:07:59.042Z,996.3
2023-03-12T00:09:00.176Z,996.3
2023-03-12T00:10:01.347Z,996.2
2023-03-12T00:11:02.739Z,996.3
2023-03-12T00:12:04.180Z,996.3
2023-03-12T00:13:05.337Z,996.3
2023-03-12T00:14:06.748Z,996.3
2023-03-12T00:15:07.886Z,996.3
2023-03-12T00:16:09.348Z,996.3
2023-03-12T00:17:11.363Z,996.3
2023-03-12T00:18:12.780Z,996.3
2023-03-12T00:19:14.202Z,996.3
2023-03-12T00:20:15.611Z,996.3
2023-03-12T00:21:17.026Z,996.3
2023-03-12T00:22:18.161Z,996.3
2023-03-12T00:23:19.299Z,996.3
2023-03-12T00:24:20.718Z,996.3
2023-03-12T00:25:21.856Z,996.2
2023-03-12T00:26:23.268Z,996.2
2023-03-12T00:27:24.710Z,996.2
2023-03-12T00:28:26.100Z,996.2
2023-03-12T00:29:27.514Z,996.2
2023-03-12T00:30:28.939Z,996.2
2023-03-12T00:31:30.374Z,996.2
2023-03-12T00:32:31.901Z,996.2
2023-03-12T00:33:32.992Z,996.3
2023-03-12T00:34:34.413Z,996.3
2023-03-12T00:35:35.567Z,996.3
2023-03-12T00:36:36.690Z,996.3
2023-03-12T00:37:37.826Z,996.3
2023-03-12T00:38:39.235Z,996.3
2023-03-12T00:39:40.651Z,996.3
2023-03-12T00:40:42.065Z,996.3
2023-03-12T00:41:43.483Z,996.3
2023-03-12T00:42:44.945Z,996.3
2023-03-12T00:43:45.812Z,996.3
2023-03-12T00:44:47.228Z,996.3
2023-03-12T00:45:48.643Z,996.3
2023-03-12T00:46:49.908Z,996.3
2023-03-12T00:47:51.420Z,996.4
2023-03-12T00:48:52.652Z,996.4
2023-03-12T00:49:54.066Z,996.4
2023-03-12T00:50:55.485Z,996.4
2023-03-12T00:51:56.620Z,996.4
2023-03-12T00:52:58.034Z,996.4
2023-03-12T00:53:59.170Z,996.4
2023-03-12T00:55:00.594Z,996.4
2023-03-12T00:56:02.017Z,996.4
2023-03-12T00:57:03.420Z,996.3
2023-03-12T00:58:04.858Z,996.4
2023-03-12T00:59:06.251Z,996.4
2023-03-12T01:00:07.667Z,996.4
2023-03-12T01:01:09.116Z,996.4
2023-03-12T01:02:10.527Z,996.4
2023-03-12T01:03:11.938Z,996.3
2023-03-12T01:04:13.494Z,996.3
2023-03-12T01:05:15.038Z,996.3
2023-03-12T01:06:16.436Z,996.3
2023-03-12T01:07:17.855Z,996.3
2023-03-12T01:08:18.990Z,996.3
2023-03-12T01:09:20.421Z,996.3
2023-03-12T01:10:21.824Z,996.3
2023-03-12T01:11:23.237Z,996.3
2023-03-12T01:12:24.653Z,996.3
2023-03-12T01:13:26.099Z,996.3
2023-03-12T01:14:27.486Z,996.2
2023-03-12T01:15:28.902Z,996.3
2023-03-12T01:16:30.566Z,996.2
2023-03-12T01:17:32.065Z,996.2
2023-03-12T01:18:33.200Z,996.2
2023-03-12T01:19:34.346Z,996.2
2023-03-12T01:20:35.476Z,996.2
2023-03-12T01:21:36.905Z,996.2
2023-03-12T01:22:38.325Z,996.2
2023-03-12T01:23:39.721Z,996.2
2023-03-12T01:24:41.160Z,996.2
2023-03-12T01:25:42.560Z,996.2
2023-03-12T01:26:43.970Z,996.2
2023-03-12T01:27:45.388Z,996.2
2023-03-12T01:28:46.553Z,996.2
2023-03-12T01:29:47.937Z,996.2
2023-03-12T01:30:49.079Z,996.2
2023-03-12T01:31:50.642Z,996.2
2023-03-12T01:32:52.324Z,996.2
2023-03-12T01:33:54.014Z,996.2
2023-03-12T01:34:55.423Z,996.2
2023-03-12T01:35:57.036Z,996.2
2023-03-12T01:36:58.618Z,996.2
2023-03-12T01:38:00.038Z,996.2
2023-03-12T01:39:01.446Z,996.2
2023-03-12T01:40:02.860Z,996.2
2023-03-12T01:41:04.280Z,996.2
2023-03-12T01:42:05.699Z,996.1
2023-03-12T01:43:07.108Z,996.1
2023-03-12T01:44:08.640Z,996.2
2023-03-12T01:45:10.021Z,996.2
2023-03-12T01:46:11.664Z,996.2
2023-03-12T01:47:13.435Z,996.2
2023-03-12T01:48:14.848Z,996.2
2023-03-12T01:49:16.264Z,996.2
2023-03-12T01:50:17.676Z,996.2
2023-03-12T01:51:19.091Z,996.2
2023-03-12T01:52:20.508Z,996.2
2023-03-12T01:53:21.920Z,996.2
2023-03-12T01:54:23.349Z,996.2
2023-03-12T01:55:24.755Z,996.2
2023-03-12T01:56:26.182Z,996.2
2023-03-12T01:57:27.591Z,996.2
2023-03-12T01:58:29.000Z,996.2
2023-03-12T01:59:30.160Z,996.2
2023-03-12T02:00:31.557Z,996.1
2023-03-12T02:01:33.052Z,996.2
2023-03-12T02:02:34.815Z,996.2
2023-03-12T02:03:36.303Z,996.2
2023-03-12T02:04:37.705Z,996.1
2023-03-12T02:05:39.122Z,996.2
2023-03-12T02:06:40.541Z,996.2
2023-03-12T02:07:41.680Z,996.2
2023-03-12T02:08:43.102Z,996.1
2023-03-12T02:09:44.539Z,996.1
2023-03-12T02:10:45.924Z,996.1
2023-03-12T02:11:47.077Z,996.1
2023-03-12T02:12:48.480Z,996.1
2023-03-12T02:13:49.973Z,996.1
2023-03-12T02:14:51.414Z,996.1
2023-03-12T02:15:52.806Z,996.1
2023-03-12T02:16:54.480Z,996
2023-03-12T02:17:55.978Z,996.1
2023-03-12T02:18:57.404Z,996.1
2023-03-12T02:19:58.808Z,996
2023-03-12T02:21:00.226Z,996
2023-03-12T02:22:01.647Z,996
2023-03-12T02:23:03.058Z,996
2023-03-12T02:24:04.473Z,996
2023-03-12T02:25:05.890Z,996
2023-03-12T02:26:07.028Z,996
2023-03-12T02:27:08.439Z,996
2023-03-12T02:28:09.859Z,996
2023-03-12T02:29:11.278Z,996
2023-03-12T02:30:12.713Z,996
2023-03-12T02:31:14.129Z,996
2023-03-12T02:32:15.236Z,996
2023-03-12T02:33:16.828Z,996
2023-03-12T02:34:18.245Z,996
2023-03-12T02:35:19.923Z,996
2023-03-12T02:36:21.340Z,996
2023-03-12T02:37:23.107Z,996
2023-03-12T02:38:24.520Z,996
2023-03-12T02:39:25.932Z,996
2023-03-12T02:40:27.355Z,996
2023-03-12T02:41:28.772Z,996
2023-03-12T02:42:30.181Z,996
2023-03-12T02:43:31.594Z,996
2023-03-12T02:44:33.018Z,996
2023-03-12T02:45:34.456Z,996
2023-03-12T02:46:36.074Z,996
2023-03-12T02:47:37.493Z,996
2023-03-12T02:48:38.913Z,996
2023-03-12T02:49:40.323Z,996
2023-03-12T02:50:41.741Z,996
2023-03-12T02:51:43.161Z,996
2023-03-12T02:52:44.572Z,996
2023-03-12T02:53:45.992Z,996
2023-03-12T02:54:47.409Z,996
2023-03-12T02:55:48.824Z,996
2023-03-12T02:56:50.255Z,996
2023-03-12T02:57:51.653Z,996
2023-03-12T02:58:53.070Z,996
2023-03-12T02:59:54.484Z,996
2023-03-12T03:00:56.102Z,996
2023-03-12T03:01:57.926Z,996.1
2023-03-12T03:02:59.339Z,996.1
2023-03-12T03:04:00.998Z,996.1
2023-03-12T03:05:02.527Z,996.1
2023-03-12T03:06:03.933Z,996.2
2023-03-12T03:07:05.103Z,996.2
2023-03-12T03:08:06.523Z,996.2
2023-03-12T03:09:07.944Z,996.2
2023-03-12T03:10:09.355Z,996.2
2023-03-12T03:11:10.490Z,996.2
2023-03-12T03:12:11.902Z,996.3
2023-03-12T03:13:13.319Z,996.3
2023-03-12T03:14:14.736Z,996.2
2023-03-12T03:15:16.151Z,996.3
2023-03-12T03:16:17.683Z,996.2
2023-03-12T03:17:19.070Z,996.3
2023-03-12T03:18:20.487Z,996.2
2023-03-12T03:19:21.906Z,996.2
2023-03-12T03:20:23.322Z,996.2
2023-03-12T03:21:24.740Z,996.2
2023-03-12T03:22:26.153Z,996.2
2023-03-12T03:23:27.568Z,996.2
2023-03-12T03:24:28.986Z,996.2
2023-03-12T03:25:30.406Z,996.3
2023-03-12T03:26:31.970Z,996.3
2023-03-12T03:27:33.407Z,996.3
2023-03-12T03:28:34.818Z,996.3
2023-03-12T03:29:36.232Z,996.3
2023-03-12T03:30:37.362Z,996.3
2023-03-12T03:31:38.294Z,996.3
2023-03-12T03:32:39.512Z,996.3
2023-03-12T03:33:41.132Z,996.3
2023-03-12T03:34:42.386Z,996.3
2023-03-12T03:35:43.826Z,996.4
2023-03-12T03:36:45.336Z,996.3
2023-03-12T03:37:46.750Z,996.3
2023-03-12T03:38:48.170Z,996.3
2023-03-12T03:39:49.590Z,996.3
2023-03-12T03:40:50.719Z,996.3
2023-03-12T03:41:51.858Z,996.3
2023-03-12T03:42:53.276Z,996.3
2023-03-12T03:43:54.690Z,996.3
2023-03-12T03:44:55.831Z,996.3
2023-03-12T03:45:57.273Z,996.3
2023-03-12T03:46:58.512Z,996.3
2023-03-12T03:47:59.901Z,996.3
2023-03-12T03:49:01.318Z,996.4
2023-03-12T03:50:02.730Z,996.4
2023-03-12T03:51:04.165Z,996.4
2023-03-12T03:52:05.285Z,996.4
2023-03-12T03:53:06.698Z,996.4
2023-03-12T03:54:08.115Z,996.4
2023-03-12T03:55:09.531Z,996.4
2023-03-12T03:56:10.971Z,996.4
2023-03-12T03:57:11.842Z,996.4
2023-03-12T03:58:13.278Z,996.4
2023-03-12T03:59:14.391Z,996.4
2023-03-12T04:00:15.527Z,996.4
2023-03-12T04:01:16.951Z,996.4
2023-03-12T04:02:18.391Z,996.4
2023-03-12T04:03:20.595Z,996.4
2023-03-12T04:04:21.981Z,996.4
2023-03-12T04:05:23.404Z,996.4
2023-03-12T04:06:24.539Z,996.4
2023-03-12T04:07:25.955Z,996.4
2023-03-12T04:08:27.370Z,996.4
2023-03-12T04:09:28.789Z,996.4
2023-03-12T04:10:30.211Z,996.4
2023-03-12T04:11:31.395Z,996.4
2023-03-12T04:12:32.799Z,996.4
2023-03-12T04:13:34.215Z,996.3
2023-03-12T04:14:35.359Z,996.3
2023-03-12T04:15:36.500Z,996.3
2023-03-12T04:16:37.906Z,996.3
2023-03-12T04:17:39.378Z,996.3
2023-03-12T04:18:40.922Z,996.3
2023-03-12T04:19:42.337Z,996.3
2023-03-12T04:20:43.752Z,996.4
2023-03-12T04:21:45.167Z,996.3
2023-03-12T04:22:46.584Z,996.3
2023-03-12T04:23:48.000Z,996.3
2023-03-12T04:24:49.138Z,996.3
2023-03-12T04:25:50.271Z,996.3
2023-03-12T04:26:51.445Z,996.3
2023-03-12T04:27:52.859Z,996.4
2023-03-12T04:28:54.280Z,996.3
2023-03-12T04:29:55.707Z,996.3
2023-03-12T04:30:57.189Z,996.3
2023-03-12T04:31:58.539Z,996.3
2023-03-12T04:32:59.977Z,996.3
2023-03-12T04:34:01.368Z,996.3
2023-03-12T04:35:02.507Z,996.3
2023-03-12T04:36:03.988Z,996.3
2023-03-12T04:37:05.326Z,996.3
2023-03-12T04:38:06.743Z,996.3
2023-03-12T04:39:08.158Z,996.3
2023-03-12T04:40:09.577Z,996.3
2023-03-12T04:41:10.999Z,996.3
2023-03-12T04:42:11.914Z,996.3
2023-03-12T04:43:13.327Z,996.3
2023-03-12T04:44:14.746Z,996.3
2023-03-12T04:45:15.896Z,996.3
2023-03-12T04:46:17.328Z,996.3
2023-03-12T04:47:18.447Z,996.4
2023-03-12T04:48:19.394Z,996.3
2023-03-12T04:49:20.780Z,996.3
2023-03-12T04:50:22.203Z,996.3
2023-03-12T04:51:23.408Z,996.3
2023-03-12T04:52:24.817Z,996.3
2023-03-12T04:53:26.308Z,996.4
2023-03-12T04:54:27.473Z,996.3
2023-03-12T04:55:28.890Z,996.4
2023-03-12T04:56:30.302Z,996.3
2023-03-12T04:57:31.805Z,996.4
2023-03-12T04:58:33.225Z,996.4
2023-03-12T04:59:34.637Z,996.4
2023-03-12T05:00:35.774Z,996.4
2023-03-12T05:01:37.188Z,996.4
2023-03-12T05:02:38.774Z,996.3
2023-03-12T05:03:40.389Z,996.3
2023-03-12T05:04:41.661Z,996.3
2023-03-12T05:05:42.798Z,996.3
2023-03-12T05:06:44.223Z,996.3
2023-03-12T05:07:45.365Z,996.3
2023-03-12T05:08:46.779Z,996.3
2023-03-12T05:09:47.916Z,996.4
2023-03-12T05:10:48.830Z,996.4
2023-03-12T05:11:50.241Z,996.4
2023-03-12T05:12:51.658Z,996.4
2023-03-12T05:13:53.074Z,996.4
2023-03-12T05:14:54.264Z,996.4
2023-03-12T05:15:55.770Z,996.3
2023-03-12T05:16:57.416Z,996.3
2023-03-12T05:17:58.832Z,996.3
2023-03-12T05:19:00.081Z,996.3
2023-03-12T05:20:01.202Z,996.4
2023-03-12T05:21:02.344Z,996.4
2023-03-12T05:22:03.467Z,996.4
2023-03-12T05:23:04.606Z,996.4
2023-03-12T05:24:05.738Z,996.4
2023-03-12T05:25:07.157Z,996.4
2023-03-12T05:26:08.573Z,996.4
2023-03-12T05:27:09.997Z,996.3
2023-03-12T05:28:11.409Z,996.3
2023-03-12T05:29:12.826Z,996.3
2023-03-12T05:30:14.239Z,996.3
2023-03-12T05:31:15.426Z,996.3
2023-03-12T05:32:17.030Z,996.3
2023-03-12T05:33:18.489Z,996.3
2023-03-12T05:34:19.917Z,996.3
2023-03-12T05:35:21.027Z,996.3
2023-03-12T05:36:22.454Z,996.3
2023-03-12T05:37:23.863Z,996.3
2023-03-12T05:38:25.182Z,996.3
2023-03-12T05:39:26.598Z,996.3
2023-03-12T05:40:28.014Z,996.3
2023-03-12T05:41:28.927Z,996.3
2023-03-12T05:42:30.053Z,996.3
2023-03-12T05:43:31.472Z,996.3
2023-03-12T05:44:32.888Z,996.3
2023-03-12T05:45:34.417Z,996.3
2023-03-12T05:46:35.535Z,996.3
2023-03-12T05:47:36.963Z,996.3
2023-03-12T05:48:38.370Z,996.3
2023-03-12T05:49:39.827Z,996.3
2023-03-12T05:50:41.212Z,996.3
2023-03-12T05:51:42.626Z,996.3
2023-03-12T05:52:44.041Z,996.3
2023-03-12T05:53:45.460Z,996.3
2023-03-12T05:54:47.278Z,996.3
2023-03-12T05:55:48.705Z,996.4
2023-03-12T05:56:49.831Z,996.4
2023-03-12T05:57:51.249Z,996.4
2023-03-12T05:58:52.666Z,996.3
2023-03-12T05:59:53.803Z,996.4
2023-03-12T06:00:54.977Z,996.4
2023-03-12T06:01:56.290Z,996.4
2023-03-12T06:02:57.561Z,996.4
2023-03-12T06:03:58.986Z,996.4
2023-03-12T06:05:00.427Z,996.4
2023-03-12T06:06:01.538Z,996.4
2023-03-12T06:07:02.673Z,996.4
2023-03-12T06:08:03.887Z,996.4
2023-03-12T06:09:05.061Z,996.4
2023-03-12T06:10:05.974Z,996.4
2023-03-12T06:11:07.106Z,996.4
2023-03-12T06:12:08.518Z,996.4
2023-03-12T06:13:09.931Z,996.3
2023-03-12T06:14:11.349Z,996.3
2023-03-12T06:15:12.761Z,996.3
2023-03-12T06:16:14.196Z,996.3
2023-03-12T06:17:15.605Z,996.3
2023-03-12T06:18:17.024Z,996.3
2023-03-12T06:19:18.432Z,996.3
2023-03-12T06:20:19.891Z,996.3
2023-03-12T06:21:21.279Z,996.3
2023-03-12T06:22:22.696Z,996.3
2023-03-12T06:23:24.110Z,996.3
2023-03-12T06:24:25.530Z,996.3
2023-03-12T06:25:26.667Z,996.3
2023-03-12T06:26:28.093Z,996.3
2023-03-12T06:27:29.523Z,996.3
2023-03-12T06:28:30.910Z,996.2
2023-03-12T06:29:32.336Z,996.2
2023-03-12T06:30:33.744Z,996.2
2023-03-12T06:31:39.077Z,996.3
2023-03-12T06:32:41.016Z,996.3
2023-03-12T06:33:42.594Z,996.3
2023-03-12T06:34:44.010Z,996.2
2023-03-12T06:35:45.502Z,996.2
2023-03-12T06:36:46.959Z,996.2
2023-03-12T06:37:48.376Z,996.2
2023-03-12T06:38:49.794Z,996.2
2023-03-12T06:39:51.205Z,996.2
2023-03-12T06:40:52.624Z,996.2
2023-03-12T06:41:54.040Z,996.2
2023-03-12T06:42:55.457Z,996.2
2023-03-12T06:43:56.871Z,996.2
2023-03-12T06:44:58.282Z,996.2
2023-03-12T06:45:59.830Z,996.2
2023-03-12T06:47:01.428Z,996.2
2023-03-12T06:48:02.840Z,996.2
2023-03-12T06:49:04.255Z,996.2
2023-03-12T06:50:05.678Z,996.2
2023-03-12T06:51:07.120Z,996.2
2023-03-12T06:52:08.506Z,996.1
2023-03-12T06:53:09.685Z,996.1
2023-03-12T06:54:11.099Z,996.1
2023-03-12T06:55:12.524Z,996.1
2023-03-12T06:56:14.254Z,996.1
2023-03-12T06:57:15.658Z,996.1
2023-03-12T06:58:17.087Z,996.1
2023-03-12T06:59:18.212Z,996.1
2023-03-12T07:00:19.627Z,996.1
2023-03-12T07:01:21.045Z,996.1
2023-03-12T07:02:22.282Z,996.1
2023-03-12T07:03:23.673Z,996.1
2023-03-12T07:04:25.249Z,996.1
2023-03-12T07:05:30.355Z,996.1
2023-03-12T07:06:31.864Z,996.1
2023-03-12T07:07:33.243Z,996.1
2023-03-12T07:08:34.670Z,996.1
2023-03-12T07:09:36.097Z,996.1
2023-03-12T07:10:37.512Z,996.1
2023-03-12T07:11:38.924Z,996.2
2023-03-12T07:12:40.345Z,996.1
2023-03-12T07:13:41.754Z,996.2
2023-03-12T07:14:43.170Z,996.2
2023-03-12T07:15:44.642Z,996.2
2023-03-12T07:16:46.178Z,996.2
2023-03-12T07:17:47.602Z,996.2
2023-03-12T07:18:49.014Z,996.2
2023-03-12T07:19:50.431Z,996.2
2023-03-12T07:20:51.568Z,996.2
2023-03-12T07:21:53.002Z,996.1
2023-03-12T07:22:54.393Z,996.1
2023-03-12T07:23:55.806Z,996.1
2023-03-12T07:24:57.223Z,996.1
2023-03-12T07:25:58.641Z,996.1
2023-03-12T07:27:00.051Z,996
2023-03-12T07:28:01.187Z,996
2023-03-12T07:29:02.326Z,996
2023-03-12T07:30:03.736Z,996
2023-03-12T07:31:05.324Z,996
2023-03-12T07:32:06.893Z,996
2023-03-12T07:33:08.772Z,996
2023-03-12T07:34:10.831Z,995.9
2023-03-12T07:35:12.526Z,995.9
2023-03-12T07:36:14.120Z,995.9
2023-03-12T07:37:15.845Z,995.9
2023-03-12T07:38:17.060Z,995.9
2023-03-12T07:39:18.672Z,995.9
2023-03-12T07:40:20.052Z,995.9
2023-03-12T07:41:21.625Z,995.9
2023-03-12T07:42:23.187Z,995.9
2023-03-12T07:43:24.897Z,995.9
2023-03-12T07:44:26.513Z,995.9
2023-03-12T07:45:28.240Z,995.9
2023-03-12T07:46:29.670Z,995.9
2023-03-12T07:47:31.348Z,995.9
2023-03-12T07:48:33.195Z,995.9
2023-03-12T07:49:34.608Z,995.9
2023-03-12T07:50:36.031Z,995.9
2023-03-12T07:51:37.448Z,995.9
2023-03-12T07:52:38.883Z,995.9
2023-03-12T07:53:40.266Z,995.9
2023-03-12T07:54:41.737Z,995.8
2023-03-12T07:55:43.577Z,995.8
2023-03-12T07:56:46.085Z,995.8
2023-03-12T07:57:47.842Z,995.8
2023-03-12T07:58:49.308Z,995.8
2023-03-12T07:59:50.817Z,995.8
2023-03-12T08:00:52.400Z,995.7
2023-03-12T08:01:54.039Z,995.7
2023-03-12T08:02:55.871Z,995.8
2023-03-12T08:03:57.926Z,995.8
2023-03-12T08:04:59.604Z,995.8
2023-03-12T08:06:01.039Z,995.8
2023-03-12T08:07:02.850Z,995.8
2023-03-12T08:08:04.502Z,995.8
2023-03-12T08:09:06.146Z,995.8
2023-03-12T08:10:07.628Z,995.8
2023-03-12T08:11:09.314Z,995.8
2023-03-12T08:12:10.867Z,995.8
2023-03-12T08:13:12.451Z,995.8
2023-03-12T08:14:14.087Z,995.8
2023-03-12T08:15:15.569Z,995.7
2023-03-12T08:16:17.016Z,995.7
2023-03-12T08:17:18.409Z,995.7
2023-03-12T08:18:19.826Z,995.7
2023-03-12T08:19:21.238Z,995.7
2023-03-12T08:20:22.422Z,995.7
2023-03-12T08:21:23.835Z,995.7
2023-03-12T08:22:25.253Z,995.7
2023-03-12T08:23:26.685Z,995.7
2023-03-12T08:24:27.794Z,995.8
2023-03-12T08:25:29.221Z,995.7
2023-03-12T08:26:30.437Z,995.7
2023-03-12T08:27:31.940Z,995.7
2023-03-12T08:28:33.123Z,995.7
2023-03-12T08:29:34.538Z,995.6
2023-03-12T08:30:35.676Z,995.6
2023-03-12T08:31:37.253Z,995.6
2023-03-12T08:32:38.989Z,995.6
2023-03-12T08:33:40.682Z,995.6
2023-03-12T08:34:42.104Z,995.6
2023-03-12T08:35:43.262Z,995.6
2023-03-12T08:36:44.694Z,995.6
2023-03-12T08:37:45.828Z,995.6
2023-03-12T08:38:47.273Z,995.6
2023-03-12T08:39:48.657Z,995.6
2023-03-12T08:40:50.078Z,995.6
2023-03-12T08:41:51.276Z,995.6
2023-03-12T08:42:52.410Z,995.6
2023-03-12T08:43:53.856Z,995.6
2023-03-12T08:44:55.003Z,995.6
2023-03-12T08:45:56.171Z,995.6
2023-03-12T08:46:57.569Z,995.6
2023-03-12T08:47:58.985Z,995.7
2023-03-12T08:49:00.416Z,995.6
2023-03-12T08:50:01.826Z,995.6
2023-03-12T08:51:03.231Z,995.7
2023-03-12T08:52:04.370Z,995.6
2023-03-12T08:53:05.790Z,995.7
2023-03-12T08:54:07.244Z,995.6
2023-03-12T08:55:08.403Z,995.6
2023-03-12T08:56:09.816Z,995.6
2023-03-12T08:57:11.229Z,995.6
2023-03-12T08:58:12.643Z,995.6
2023-03-12T08:59:13.671Z,995.6
2023-03-12T09:00:15.213Z,995.6
2023-03-12T09:01:16.632Z,995.5
2023-03-12T09:02:18.046Z,995.5
2023-03-12T09:03:19.656Z,995.5
2023-03-12T09:04:21.027Z,995.4
2023-03-12T09:05:22.389Z,995.4
2023-03-12T09:06:23.803Z,995.4
2023-03-12T09:07:25.272Z,995.4
2023-03-12T09:08:26.800Z,995.4
2023-03-12T09:09:28.236Z,995.3
2023-03-12T09:10:31.453Z,995.3
2023-03-12T09:11:33.081Z,995.2
2023-03-12T09:12:34.484Z,995.2
2023-03-12T09:14:28.335Z,995.2
2023-03-12T09:16:03.729Z,995.2
2023-03-12T09:17:04.904Z,995.2
2023-03-12T09:18:06.035Z,995.2
2023-03-12T09:19:07.460Z,995.2
2023-03-12T09:20:08.881Z,995.2
2023-03-12T09:21:10.009Z,995.2
2023-03-12T09:22:11.141Z,995.2
2023-03-12T09:23:12.556Z,995.2
2023-03-12T09:24:13.976Z,995.2
2023-03-12T09:25:15.506Z,995.2
2023-03-12T09:26:16.898Z,995.2
2023-03-12T09:27:18.316Z,995.2
2023-03-12T09:28:19.725Z,995.2
2023-03-12T09:29:21.137Z,995.2
2023-03-12T09:30:22.625Z,995.2
2023-03-12T09:31:24.092Z,995.2
2023-03-12T09:32:25.598Z,995.2
2023-03-12T09:33:26.680Z,995.2
2023-03-12T09:34:28.093Z,995.2
2023-03-12T09:35:29.516Z,995.2
2023-03-12T09:36:30.927Z,995.2
2023-03-12T09:37:32.059Z,995.2
2023-03-12T09:38:33.474Z,995.2
2023-03-12T09:39:34.892Z,995.1
2023-03-12T09:40:36.340Z,995.1
2023-03-12T09:41:37.746Z,995.1
2023-03-12T09:42:38.877Z,995.2
2023-03-12T09:43:40.457Z,995.2
2023-03-12T09:44:41.874Z,995.2
2023-03-12T09:45:42.726Z,995.1
2023-03-12T09:46:43.998Z,995.2
2023-03-12T09:47:45.386Z,995.2
2023-03-12T09:48:47.912Z,995.2
2023-03-12T09:49:49.321Z,995.2
2023-03-12T09:50:50.759Z,995.2
2023-03-12T09:51:52.184Z,995.1
2023-03-12T09:52:53.591Z,995.1
2023-03-12T09:53:54.726Z,995.1
2023-03-12T09:54:56.142Z,995.1
2023-03-12T09:55:57.586Z,995
2023-03-12T09:56:58.979Z,995
2023-03-12T09:58:00.393Z,995.1
2023-03-12T09:59:01.884Z,995.1
2023-03-12T10:00:03.345Z,995.1
2023-03-12T10:01:04.758Z,995.1
2023-03-12T10:02:06.195Z,995.1
2023-03-12T10:03:07.875Z,995.1
2023-03-12T10:04:09.450Z,995.1
2023-03-12T10:05:11.217Z,995.1
2023-03-12T10:06:12.771Z,995
2023-03-12T10:07:13.991Z,995.1
2023-03-12T10:08:26.877Z,995.1
2023-03-12T10:09:33.067Z,995
2023-03-12T10:10:34.484Z,995.1
2023-03-12T10:11:35.923Z,995.1
2023-03-12T10:12:37.309Z,995.1
2023-03-12T10:13:38.741Z,995.1
2023-03-12T10:14:39.957Z,995
2023-03-12T10:15:41.435Z,995.1
2023-03-12T10:16:42.951Z,995.1
2023-03-12T10:17:44.593Z,995.1
2023-03-12T10:18:48.961Z,995.1
2023-03-12T10:19:50.648Z,995
2023-03-12T10:20:52.066Z,995
2023-03-12T10:21:53.532Z,995
2023-03-12T10:22:54.793Z,995
2023-03-12T10:23:56.206Z,995
2023-03-12T10:24:57.343Z,995
2023-03-12T10:25:58.759Z,995
2023-03-12T10:27:00.242Z,995
2023-03-12T10:28:01.632Z,995
2023-03-12T10:29:03.041Z,995
2023-03-12T10:30:04.173Z,994.9
2023-03-12T10:31:05.811Z,994.9
2023-03-12T10:32:07.426Z,994.9
2023-03-12T10:33:08.842Z,994.9
2023-03-12T10:34:10.257Z,994.9
2023-03-12T10:35:11.669Z,994.9
2023-03-12T10:36:13.228Z,994.9
2023-03-12T10:37:14.731Z,994.9
2023-03-12T10:38:15.864Z,994.9
2023-03-12T10:39:17.280Z,994.8
2023-03-12T10:40:18.696Z,994.8
2023-03-12T10:41:20.109Z,994.8
2023-03-12T10:42:21.557Z,994.8
2023-03-12T10:43:22.944Z,994.8
2023-03-12T10:44:24.086Z,994.8
2023-03-12T10:45:25.493Z,994.8
2023-03-12T10:46:27.010Z,994.7
2023-03-12T10:47:28.244Z,994.7
2023-03-12T10:48:29.653Z,994.7
2023-03-12T10:49:31.073Z,994.7
2023-03-12T10:50:32.503Z,994.7
2023-03-12T10:51:33.902Z,994.7
2023-03-12T10:52:35.325Z,994.7
2023-03-12T10:53:36.463Z,994.6
2023-03-12T10:54:37.873Z,994.7
2023-03-12T10:55:39.284Z,994.7
2023-03-12T10:56:40.699Z,994.6
2023-03-12T10:57:42.152Z,994.6
2023-03-12T10:58:43.544Z,994.5
2023-03-12T10:59:44.960Z,994.5
2023-03-12T11:00:46.187Z,994.5
2023-03-12T11:01:47.675Z,994.4
2023-03-12T11:02:49.177Z,994.4
2023-03-12T11:03:50.570Z,994.4
2023-03-12T11:04:51.778Z,994.4
2023-03-12T11:05:53.196Z,994.4
2023-03-12T11:06:54.769Z,994.4
2023-03-12T11:07:56.186Z,994.4
2023-03-12T11:09:17.421Z,994.4
2023-03-12T11:10:19.001Z,994.5
2023-03-12T11:11:20.413Z,994.4
2023-03-12T11:12:21.829Z,994.4
2023-03-12T11:13:23.701Z,994.4
2023-03-12T11:14:25.090Z,994.4
2023-03-12T11:15:26.501Z,994.4
2023-03-12T11:16:32.033Z,994.4
2023-03-12T11:17:33.694Z,994.3
2023-03-12T11:18:35.116Z,994.2
2023-03-12T11:19:36.527Z,994.2
2023-03-12T11:20:38.074Z,994.1
2023-03-12T11:21:39.488Z,994.1
2023-03-12T11:22:40.904Z,994.1
2023-03-12T11:23:42.317Z,994
2023-03-12T11:24:43.730Z,994
2023-03-12T11:25:45.145Z,994
2023-03-12T11:26:46.567Z,994
2023-03-12T11:27:47.977Z,994
2023-03-12T11:28:49.419Z,994
2023-03-12T11:29:51.036Z,994
2023-03-12T11:30:52.359Z,994
2023-03-12T11:31:53.978Z,994
2023-03-12T11:32:55.830Z,993.9
2023-03-12T11:33:57.226Z,993.9
2023-03-12T11:34:58.361Z,993.9
2023-03-12T11:35:59.844Z,993.9
2023-03-12T11:37:01.226Z,993.9
2023-03-12T11:38:02.641Z,993.8
2023-03-12T11:39:04.055Z,993.9
2023-03-12T11:40:05.477Z,993.9
2023-03-12T11:41:06.891Z,993.9
2023-03-12T11:42:08.022Z,993.9
2023-03-12T11:43:09.460Z,994
2023-03-12T11:44:10.893Z,994
2023-03-12T11:45:12.279Z,993.9
2023-03-12T11:46:13.947Z,993.9
2023-03-12T11:47:15.437Z,993.9
2023-03-12T11:48:16.883Z,993.9
2023-03-12T11:49:17.600Z,993.9
2023-03-12T11:50:18.739Z,993.8
2023-03-12T11:51:20.125Z,993.8
2023-03-12T11:52:21.262Z,993.8
2023-03-12T11:53:22.445Z,993.8
2023-03-12T11:54:23.337Z,993.8
2023-03-12T11:55:24.751Z,993.8
2023-03-12T11:56:26.166Z,993.8
2023-03-12T11:57:27.583Z,993.8
2023-03-12T11:58:28.766Z,993.8
2023-03-12T11:59:30.211Z,993.7
2023-03-12T12:00:31.596Z,993.7
2023-03-12T12:01:32.737Z,993.7
2023-03-12T12:02:34.149Z,993.7
2023-03-12T12:03:35.684Z,993.7
2023-03-12T12:04:37.157Z,993.7
2023-03-12T12:05:38.573Z,993.7
2023-03-12T12:06:39.986Z,993.7
2023-03-12T12:07:41.184Z,993.6
2023-03-12T12:08:42.291Z,993.6
2023-03-12T12:09:43.708Z,993.6
2023-03-12T12:10:45.150Z,993.6
2023-03-12T12:11:46.311Z,993.5
2023-03-12T12:12:47.482Z,993.5
2023-03-12T12:13:48.895Z,993.5
2023-03-12T12:14:50.371Z,993.5
2023-03-12T12:15:51.468Z,993.5
2023-03-12T12:16:52.631Z,993.5
2023-03-12T12:17:54.029Z,993.4
2023-03-12T12:18:55.495Z,993.4
2023-03-12T12:19:57.188Z,993.4
2023-03-12T12:20:58.325Z,993.4
2023-03-12T12:21:59.921Z,993.4
2023-03-12T12:23:01.566Z,993.4
2023-03-12T12:24:03.011Z,993.4
2023-03-12T12:25:04.172Z,993.4
2023-03-12T12:26:05.927Z,993.3
2023-03-12T12:27:07.565Z,993.3
2023-03-12T12:28:08.993Z,993.3
2023-03-12T12:29:10.128Z,993.3
2023-03-12T12:30:11.309Z,993.3
2023-03-12T12:31:12.690Z,993.3
2023-03-12T12:32:14.107Z,993.2
2023-03-12T12:33:15.160Z,993.3
2023-03-12T12:34:16.568Z,993.3
2023-03-12T12:35:17.988Z,993.3
2023-03-12T12:36:19.428Z,993.3
2023-03-12T12:37:20.814Z,993.2
2023-03-12T12:38:22.002Z,993.2
2023-03-12T12:39:23.428Z,993.2
2023-03-12T12:40:24.830Z,993.2
2023-03-12T12:41:26.006Z,993.1
2023-03-12T12:42:27.426Z,993.1
2023-03-12T12:43:28.866Z,993.2
2023-03-12T12:44:30.254Z,993.2
2023-03-12T12:45:31.732Z,993.1
2023-03-12T12:46:32.840Z,993.1
2023-03-12T12:47:34.252Z,993.1
2023-03-12T12:48:35.692Z,993
2023-03-12T12:49:37.080Z,992.9
2023-03-12T12:50:38.504Z,992.8
2023-03-12T12:51:39.920Z,992.8
2023-03-12T12:52:41.334Z,992.8
2023-03-12T12:53:42.466Z,992.7
2023-03-12T12:54:43.655Z,992.7
2023-03-12T12:55:45.073Z,992.7
2023-03-12T12:56:46.201Z,992.7
2023-03-12T12:57:47.104Z,992.6
2023-03-12T12:58:48.516Z,992.6
2023-03-12T12:59:49.652Z,992.6
2023-03-12T13:00:50.963Z,992.6
2023-03-12T13:01:52.528Z,992.6
2023-03-12T13:02:53.949Z,992.5
2023-03-12T13:03:55.308Z,992.6
2023-03-12T13:04:56.633Z,992.6
2023-03-12T13:05:57.773Z,992.6
2023-03-12T13:06:58.907Z,992.6
2023-03-12T13:08:00.323Z,992.6
2023-03-12T13:09:01.736Z,992.6
2023-03-12T13:10:02.644Z,992.6
2023-03-12T13:11:20.549Z,992.6
2023-03-12T13:12:21.814Z,992.6
2023-03-12T13:13:23.551Z,992.6
2023-03-12T13:14:27.945Z,992.5
2023-03-12T13:15:29.388Z,992.5
2023-03-12T13:16:30.842Z,992.5
2023-03-12T13:17:32.178Z,992.5
2023-03-12T13:18:33.575Z,992.5